sensor_id;sensor_type;location;lat;lon;timestamp;pressure;altitude;pressure_sealevel;temperature;humidity
64141;BME280;50436;50.618;7.932;2022-08-25T00:01:36;96769.22;;;21.23;86.19
64141;BME280;50436;50.618;7.932;2022-08-25T00:04:05;96767.25;;;21.15;87.93
64141;BME280;50436;50.618;7.932;2022-08-25T00:06:31;96770.59;;;21.12;88.33
64141;BME280;50436;50.618;7.932;2022-08-25T00:08:57;96761.69;;;21.20;87.03
64141;BME280;50436;50.618;7.932;2022-08-25T00:11:25;96771.81;;;21.06;88.38
64141;BME280;50436;50.618;7.932;2022-08-25T00:13:57;96762.78;;;20.97;89.66
64141;BME280;50436;50.618;7.932;2022-08-25T00:16:27;96767.72;;;20.95;90.03
64141;BME280;50436;50.618;7.932;2022-08-25T00:18:57;96761.09;;;20.87;90.74
64141;BME280;50436;50.618;7.932;2022-08-25T00:21:23;96774.19;;;20.85;89.23
64141;BME280;50436;50.618;7.932;2022-08-25T00:23:49;96765.22;;;20.84;89.87
64141;BME280;50436;50.618;7.932;2022-08-25T00:26:15;96762.75;;;20.74;91.49
64141;BME280;50436;50.618;7.932;2022-08-25T00:28:42;96763.97;;;20.68;91.81
64141;BME280;50436;50.618;7.932;2022-08-25T00:31:15;96762.84;;;20.69;92.22
64141;BME280;50436;50.618;7.932;2022-08-25T00:33:42;96758.22;;;20.70;91.43
64141;BME280;50436;50.618;7.932;2022-08-25T00:36:08;96767.19;;;20.70;91.46
64141;BME280;50436;50.618;7.932;2022-08-25T00:38:40;96758.03;;;20.66;91.18
64141;BME280;50436;50.618;7.932;2022-08-25T00:41:08;96762.97;;;20.64;93.19
64141;BME280;50436;50.618;7.932;2022-08-25T00:43:46;96767.00;;;20.53;94.58
64141;BME280;50436;50.618;7.932;2022-08-25T00:46:15;96770.84;;;20.52;92.93
64141;BME280;50436;50.618;7.932;2022-08-25T00:48:43;96780.00;;;20.42;95.46
64141;BME280;50436;50.618;7.932;2022-08-25T00:51:13;96772.34;;;20.30;96.47
64141;BME280;50436;50.618;7.932;2022-08-25T00:53:43;96774.06;;;20.26;95.78
64141;BME280;50436;50.618;7.932;2022-08-25T00:56:11;96775.38;;;20.29;97.86
64141;BME280;50436;50.618;7.932;2022-08-25T00:58:37;96769.03;;;20.34;96.51
64141;BME280;50436;50.618;7.932;2022-08-25T01:01:08;96772.56;;;20.20;97.32
64141;BME280;50436;50.618;7.932;2022-08-25T01:03:33;96775.47;;;20.10;98.52
64141;BME280;50436;50.618;7.932;2022-08-25T01:06:01;96770.34;;;20.09;97.21
64141;BME280;50436;50.618;7.932;2022-08-25T01:08:28;96772.44;;;19.98;100.00
64141;BME280;50436;50.618;7.932;2022-08-25T01:10:58;96760.59;;;19.94;100.00
64141;BME280;50436;50.618;7.932;2022-08-25T01:13:34;96761.88;;;19.83;100.00
64141;BME280;50436;50.618;7.932;2022-08-25T01:16:02;96770.63;;;19.80;100.00
64141;BME280;50436;50.618;7.932;2022-08-25T01:18:28;96775.03;;;19.75;100.00
64141;BME280;50436;50.618;7.932;2022-08-25T01:20:57;96774.94;;;19.81;100.00
64141;BME280;50436;50.618;7.932;2022-08-25T01:23:25;96777.25;;;19.73;100.00
64141;BME280;50436;50.618;7.932;2022-08-25T01:28:20;96772.72;;;19.83;100.00
64141;BME280;50436;50.618;7.932;2022-08-25T01:30:45;96759.88;;;19.88;100.00
64141;BME280;50436;50.618;7.932;2022-08-25T01:33:12;96765.50;;;19.92;100.00
64141;BME280;50436;50.618;7.932;2022-08-25T01:35:39;96761.78;;;19.88;100.00
64141;BME280;50436;50.618;7.932;2022-08-25T01:38:06;96767.53;;;19.86;100.00
64141;BME280;50436;50.618;7.932;2022-08-25T01:40:34;96764.09;;;19.81;100.00
64141;BME280;50436;50.618;7.932;2022-08-25T01:45:33;96765.69;;;19.82;100.00
64141;BME280;50436;50.618;7.932;2022-08-25T01:47:59;96762.66;;;19.83;100.00
64141;BME280;50436;50.618;7.932;2022-08-25T01:50:25;96765.19;;;19.80;100.00
64141;BME280;50436;50.618;7.932;2022-08-25T01:52:58;96766.81;;;19.81;100.00
64141;BME280;50436;50.618;7.932;2022-08-25T01:55:25;96763.91;;;19.77;100.00
64141;BME280;50436;50.618;7.932;2022-08-25T01:57:50;96766.31;;;19.79;100.00
64141;BME280;50436;50.618;7.932;2022-08-25T02:00:18;96775.66;;;19.72;100.00
64141;BME280;50436;50.618;7.932;2022-08-25T02:02:45;96769.59;;;19.62;100.00
64141;BME280;50436;50.618;7.932;2022-08-25T02:05:12;96776.94;;;19.61;100.00
64141;BME280;50436;50.618;7.932;2022-08-25T02:07:39;96775.69;;;19.54;100.00
64141;BME280;50436;50.618;7.932;2022-08-25T02:10:07;96770.53;;;19.52;100.00
64141;BME280;50436;50.618;7.932;2022-08-25T02:12:33;96775.97;;;19.52;100.00
64141;BME280;50436;50.618;7.932;2022-08-25T02:14:59;96778.19;;;19.50;100.00
64141;BME280;50436;50.618;7.932;2022-08-25T02:17:27;96766.91;;;19.43;100.00
64141;BME280;50436;50.618;7.932;2022-08-25T02:19:52;96764.78;;;19.40;100.00
64141;BME280;50436;50.618;7.932;2022-08-25T02:22:20;96772.94;;;19.40;100.00
64141;BME280;50436;50.618;7.932;2022-08-25T02:24:45;96748.34;;;19.17;100.00
64141;BME280;50436;50.618;7.932;2022-08-25T02:27:12;96768.72;;;19.15;100.00
64141;BME280;50436;50.618;7.932;2022-08-25T02:29:38;96764.56;;;19.04;100.00
64141;BME280;50436;50.618;7.932;2022-08-25T02:32:04;96779.00;;;18.99;100.00
64141;BME280;50436;50.618;7.932;2022-08-25T02:34:30;96778.28;;;18.93;100.00
64141;BME280;50436;50.618;7.932;2022-08-25T02:36:55;96779.25;;;18.84;100.00
64141;BME280;50436;50.618;7.932;2022-08-25T02:39:21;96783.63;;;18.80;100.00
64141;BME280;50436;50.618;7.932;2022-08-25T02:41:46;96781.22;;;18.78;100.00
64141;BME280;50436;50.618;7.932;2022-08-25T02:44:11;96782.59;;;18.76;100.00
64141;BME280;50436;50.618;7.932;2022-08-25T02:46:37;96775.03;;;18.73;100.00
64141;BME280;50436;50.618;7.932;2022-08-25T02:49:04;96776.16;;;18.72;100.00
64141;BME280;50436;50.618;7.932;2022-08-25T02:51:29;96777.31;;;18.65;100.00
64141;BME280;50436;50.618;7.932;2022-08-25T02:53:57;96786.19;;;18.71;100.00
64141;BME280;50436;50.618;7.932;2022-08-25T02:56:23;96782.38;;;18.72;100.00
64141;BME280;50436;50.618;7.932;2022-08-25T02:58:50;96782.66;;;18.71;100.00
64141;BME280;50436;50.618;7.932;2022-08-25T03:01:16;96774.84;;;18.69;100.00
64141;BME280;50436;50.618;7.932;2022-08-25T03:03:43;96773.56;;;18.61;100.00
64141;BME280;50436;50.618;7.932;2022-08-25T03:06:11;96772.00;;;18.55;100.00
64141;BME280;50436;50.618;7.932;2022-08-25T03:08:38;96765.47;;;18.56;100.00
64141;BME280;50436;50.618;7.932;2022-08-25T03:11:04;96762.78;;;18.56;100.00
64141;BME280;50436;50.618;7.932;2022-08-25T03:13:31;96768.34;;;18.65;100.00
64141;BME280;50436;50.618;7.932;2022-08-25T03:15:58;96756.69;;;18.64;100.00
64141;BME280;50436;50.618;7.932;2022-08-25T03:18:25;96760.75;;;18.67;100.00
64141;BME280;50436;50.618;7.932;2022-08-25T03:20:50;96749.38;;;18.65;100.00
64141;BME280;50436;50.618;7.932;2022-08-25T03:23:16;96740.22;;;18.61;100.00
64141;BME280;50436;50.618;7.932;2022-08-25T03:25:42;96741.53;;;18.63;100.00
64141;BME280;50436;50.618;7.932;2022-08-25T03:28:26;96734.22;;;18.64;100.00
64141;BME280;50436;50.618;7.932;2022-08-25T03:30:52;96735.00;;;18.64;100.00
64141;BME280;50436;50.618;7.932;2022-08-25T03:33:18;96737.28;;;18.57;100.00
64141;BME280;50436;50.618;7.932;2022-08-25T03:35:44;96733.78;;;18.57;100.00
64141;BME280;50436;50.618;7.932;2022-08-25T03:38:10;96725.06;;;18.60;100.00
64141;BME280;50436;50.618;7.932;2022-08-25T03:40:36;96731.50;;;18.64;100.00
64141;BME280;50436;50.618;7.932;2022-08-25T03:43:02;96731.81;;;18.62;100.00
64141;BME280;50436;50.618;7.932;2022-08-25T03:45:29;96726.94;;;18.59;100.00
64141;BME280;50436;50.618;7.932;2022-08-25T03:47:55;96725.94;;;18.55;100.00
64141;BME280;50436;50.618;7.932;2022-08-25T03:50:22;96728.16;;;18.53;100.00
64141;BME280;50436;50.618;7.932;2022-08-25T03:52:54;96728.16;;;18.53;100.00
64141;BME280;50436;50.618;7.932;2022-08-25T03:55:22;96714.44;;;18.45;100.00
64141;BME280;50436;50.618;7.932;2022-08-25T03:57:48;96727.84;;;18.55;100.00
64141;BME280;50436;50.618;7.932;2022-08-25T04:00:13;96730.31;;;18.51;100.00
64141;BME280;50436;50.618;7.932;2022-08-25T04:02:40;96732.00;;;18.47;100.00
64141;BME280;50436;50.618;7.932;2022-08-25T04:05:06;96735.81;;;18.46;100.00
64141;BME280;50436;50.618;7.932;2022-08-25T04:07:32;96731.72;;;18.49;100.00
64141;BME280;50436;50.618;7.932;2022-08-25T04:09:57;96721.53;;;18.41;100.00
64141;BME280;50436;50.618;7.932;2022-08-25T04:12:23;96714.00;;;18.37;100.00
64141;BME280;50436;50.618;7.932;2022-08-25T04:14:49;96712.47;;;18.31;100.00
64141;BME280;50436;50.618;7.932;2022-08-25T04:17:14;96713.91;;;18.24;100.00
64141;BME280;50436;50.618;7.932;2022-08-25T04:19:40;96710.09;;;18.25;100.00
64141;BME280;50436;50.618;7.932;2022-08-25T04:22:06;96707.09;;;18.26;100.00
64141;BME280;50436;50.618;7.932;2022-08-25T04:24:31;96715.53;;;18.25;100.00
64141;BME280;50436;50.618;7.932;2022-08-25T04:26:56;96714.72;;;18.24;100.00
64141;BME280;50436;50.618;7.932;2022-08-25T04:29:24;96714.41;;;18.26;100.00
64141;BME280;50436;50.618;7.932;2022-08-25T04:31:50;96716.31;;;18.25;100.00
64141;BME280;50436;50.618;7.932;2022-08-25T04:34:17;96712.50;;;18.26;100.00
64141;BME280;50436;50.618;7.932;2022-08-25T04:36:43;96705.84;;;18.19;100.00
64141;BME280;50436;50.618;7.932;2022-08-25T04:39:08;96720.47;;;18.18;100.00
64141;BME280;50436;50.618;7.932;2022-08-25T04:41:34;96725.16;;;18.12;100.00
64141;BME280;50436;50.618;7.932;2022-08-25T04:44:00;96725.22;;;18.07;100.00
64141;BME280;50436;50.618;7.932;2022-08-25T04:46:30;96731.22;;;18.04;100.00
64141;BME280;50436;50.618;7.932;2022-08-25T04:48:58;96722.56;;;18.02;100.00
64141;BME280;50436;50.618;7.932;2022-08-25T04:51:46;96718.59;;;17.94;100.00
64141;BME280;50436;50.618;7.932;2022-08-25T04:54:14;96723.38;;;18.02;100.00
64141;BME280;50436;50.618;7.932;2022-08-25T04:56:46;96717.16;;;18.02;100.00
64141;BME280;50436;50.618;7.932;2022-08-25T04:59:14;96713.94;;;18.00;100.00
64141;BME280;50436;50.618;7.932;2022-08-25T05:01:40;96718.47;;;18.04;100.00
64141;BME280;50436;50.618;7.932;2022-08-25T05:04:09;96713.34;;;18.03;100.00
64141;BME280;50436;50.618;7.932;2022-08-25T05:06:35;96721.06;;;18.15;100.00
64141;BME280;50436;50.618;7.932;2022-08-25T05:09:02;96719.47;;;18.14;100.00
64141;BME280;50436;50.618;7.932;2022-08-25T05:11:28;96725.91;;;18.18;100.00
64141;BME280;50436;50.618;7.932;2022-08-25T05:13:55;96721.53;;;18.22;100.00
64141;BME280;50436;50.618;7.932;2022-08-25T05:16:22;96723.94;;;18.23;100.00
64141;BME280;50436;50.618;7.932;2022-08-25T05:18:49;96715.72;;;18.28;100.00
64141;BME280;50436;50.618;7.932;2022-08-25T05:21:21;96715.66;;;18.33;100.00
64141;BME280;50436;50.618;7.932;2022-08-25T05:23:47;96711.56;;;18.36;100.00
64141;BME280;50436;50.618;7.932;2022-08-25T05:26:16;96715.31;;;18.40;100.00
64141;BME280;50436;50.618;7.932;2022-08-25T05:28:43;96723.88;;;18.47;100.00
64141;BME280;50436;50.618;7.932;2022-08-25T05:31:11;96726.81;;;18.51;100.00
64141;BME280;50436;50.618;7.932;2022-08-25T05:33:37;96723.53;;;18.54;100.00
64141;BME280;50436;50.618;7.932;2022-08-25T05:36:04;96721.63;;;18.54;100.00
64141;BME280;50436;50.618;7.932;2022-08-25T05:38:30;96725.94;;;18.55;100.00
64141;BME280;50436;50.618;7.932;2022-08-25T05:41:00;96726.44;;;18.57;100.00
64141;BME280;50436;50.618;7.932;2022-08-25T05:43:26;96726.44;;;18.57;100.00
64141;BME280;50436;50.618;7.932;2022-08-25T05:45:53;96712.31;;;18.60;100.00
64141;BME280;50436;50.618;7.932;2022-08-25T05:48:20;96710.06;;;18.68;100.00
64141;BME280;50436;50.618;7.932;2022-08-25T05:50:59;96715.41;;;18.73;100.00
64141;BME280;50436;50.618;7.932;2022-08-25T05:53:26;96705.81;;;18.80;100.00
64141;BME280;50436;50.618;7.932;2022-08-25T05:55:53;96706.53;;;18.86;100.00
64141;BME280;50436;50.618;7.932;2022-08-25T05:58:21;96699.94;;;18.92;100.00
64141;BME280;50436;50.618;7.932;2022-08-25T06:00:48;96701.25;;;18.95;100.00
64141;BME280;50436;50.618;7.932;2022-08-25T06:03:13;96696.84;;;18.99;100.00
64141;BME280;50436;50.618;7.932;2022-08-25T06:05:39;96703.41;;;19.11;100.00
64141;BME280;50436;50.618;7.932;2022-08-25T06:08:05;96693.28;;;19.17;100.00
64141;BME280;50436;50.618;7.932;2022-08-25T06:10:31;96695.09;;;19.21;100.00
64141;BME280;50436;50.618;7.932;2022-08-25T06:12:56;96703.66;;;19.29;100.00
64141;BME280;50436;50.618;7.932;2022-08-25T06:15:24;96708.13;;;19.38;100.00
64141;BME280;50436;50.618;7.932;2022-08-25T06:17:50;96692.53;;;19.44;100.00
64141;BME280;50436;50.618;7.932;2022-08-25T06:20:21;96693.16;;;19.55;100.00
64141;BME280;50436;50.618;7.932;2022-08-25T06:22:48;96698.00;;;19.58;100.00
64141;BME280;50436;50.618;7.932;2022-08-25T06:25:16;96705.16;;;19.67;100.00
64141;BME280;50436;50.618;7.932;2022-08-25T06:27:43;96702.25;;;19.78;100.00
64141;BME280;50436;50.618;7.932;2022-08-25T06:30:12;96699.34;;;19.88;100.00
64141;BME280;50436;50.618;7.932;2022-08-25T06:32:40;96706.16;;;19.99;100.00
64141;BME280;50436;50.618;7.932;2022-08-25T06:35:09;96705.97;;;20.09;100.00
64141;BME280;50436;50.618;7.932;2022-08-25T06:37:35;96705.25;;;20.17;100.00
64141;BME280;50436;50.618;7.932;2022-08-25T06:40:02;96705.94;;;20.23;100.00
64141;BME280;50436;50.618;7.932;2022-08-25T06:42:28;96707.75;;;20.27;100.00
64141;BME280;50436;50.618;7.932;2022-08-25T06:44:53;96705.72;;;20.33;100.00
64141;BME280;50436;50.618;7.932;2022-08-25T06:47:19;96701.59;;;20.36;100.00
64141;BME280;50436;50.618;7.932;2022-08-25T06:49:45;96709.66;;;20.41;100.00
64141;BME280;50436;50.618;7.932;2022-08-25T06:52:11;96710.06;;;20.48;100.00
64141;BME280;50436;50.618;7.932;2022-08-25T06:54:37;96708.81;;;20.54;100.00
64141;BME280;50436;50.618;7.932;2022-08-25T06:57:04;96707.59;;;20.60;100.00
64141;BME280;50436;50.618;7.932;2022-08-25T06:59:30;96706.38;;;20.66;100.00
64141;BME280;50436;50.618;7.932;2022-08-25T07:01:56;96712.81;;;20.70;100.00
64141;BME280;50436;50.618;7.932;2022-08-25T07:04:21;96701.00;;;20.75;100.00
64141;BME280;50436;50.618;7.932;2022-08-25T07:06:46;96707.31;;;20.84;100.00
64141;BME280;50436;50.618;7.932;2022-08-25T07:09:13;96713.34;;;20.95;100.00
64141;BME280;50436;50.618;7.932;2022-08-25T07:11:40;96703.91;;;21.01;100.00
64141;BME280;50436;50.618;7.932;2022-08-25T07:14:07;96701.13;;;21.14;100.00
64141;BME280;50436;50.618;7.932;2022-08-25T07:16:34;96689.69;;;21.26;100.00
64141;BME280;50436;50.618;7.932;2022-08-25T07:19:00;96690.38;;;21.32;100.00
64141;BME280;50436;50.618;7.932;2022-08-25T07:21:27;96696.38;;;21.42;100.00
64141;BME280;50436;50.618;7.932;2022-08-25T07:23:53;96697.34;;;21.47;100.00
64141;BME280;50436;50.618;7.932;2022-08-25T07:26:22;96695.44;;;21.47;100.00
64141;BME280;50436;50.618;7.932;2022-08-25T07:28:49;96696.44;;;21.51;100.00
64141;BME280;50436;50.618;7.932;2022-08-25T07:31:15;96693.38;;;21.53;100.00
64141;BME280;50436;50.618;7.932;2022-08-25T07:33:41;96694.22;;;21.62;100.00
64141;BME280;50436;50.618;7.932;2022-08-25T07:36:26;96685.44;;;21.65;100.00
64141;BME280;50436;50.618;7.932;2022-08-25T07:38:52;96697.03;;;21.79;100.00
64141;BME280;50436;50.618;7.932;2022-08-25T07:41:18;96697.34;;;21.78;100.00
64141;BME280;50436;50.618;7.932;2022-08-25T07:43:43;96699.13;;;21.82;100.00
64141;BME280;50436;50.618;7.932;2022-08-25T07:46:09;96698.63;;;21.80;100.00
64141;BME280;50436;50.618;7.932;2022-08-25T07:48:35;96699.78;;;21.88;100.00
64141;BME280;50436;50.618;7.932;2022-08-25T07:51:10;96702.22;;;21.98;100.00
64141;BME280;50436;50.618;7.932;2022-08-25T07:53:36;96709.28;;;21.99;100.00
64141;BME280;50436;50.618;7.932;2022-08-25T07:56:02;96704.41;;;22.18;100.00
64141;BME280;50436;50.618;7.932;2022-08-25T07:58:27;96701.19;;;22.25;100.00
64141;BME280;50436;50.618;7.932;2022-08-25T08:00:53;96701.38;;;22.29;100.00
64141;BME280;50436;50.618;7.932;2022-08-25T08:03:19;96694.66;;;22.43;100.00
64141;BME280;50436;50.618;7.932;2022-08-25T08:05:47;96703.78;;;22.47;100.00
64141;BME280;50436;50.618;7.932;2022-08-25T08:08:13;96697.41;;;22.52;100.00
64141;BME280;50436;50.618;7.932;2022-08-25T08:10:39;96700.59;;;22.54;100.00
64141;BME280;50436;50.618;7.932;2022-08-25T08:13:04;96698.19;;;22.61;100.00
64141;BME280;50436;50.618;7.932;2022-08-25T08:15:30;96701.25;;;22.77;100.00
64141;BME280;50436;50.618;7.932;2022-08-25T08:17:57;96701.47;;;22.89;100.00
64141;BME280;50436;50.618;7.932;2022-08-25T08:20:22;96701.09;;;22.82;100.00
64141;BME280;50436;50.618;7.932;2022-08-25T08:22:48;96698.06;;;23.01;100.00
64141;BME280;50436;50.618;7.932;2022-08-25T08:25:13;96709.28;;;23.08;100.00
64141;BME280;50436;50.618;7.932;2022-08-25T08:27:39;96697.09;;;23.14;100.00
64141;BME280;50436;50.618;7.932;2022-08-25T08:30:07;96692.44;;;23.15;100.00
64141;BME280;50436;50.618;7.932;2022-08-25T08:32:33;96696.09;;;23.19;100.00
64141;BME280;50436;50.618;7.932;2022-08-25T08:34:59;96702.69;;;23.26;100.00
64141;BME280;50436;50.618;7.932;2022-08-25T08:37:24;96692.72;;;23.30;100.00
64141;BME280;50436;50.618;7.932;2022-08-25T08:39:50;96698.69;;;23.24;100.00
64141;BME280;50436;50.618;7.932;2022-08-25T08:42:36;96692.09;;;23.25;100.00
64141;BME280;50436;50.618;7.932;2022-08-25T08:50:31;96685.19;;;23.83;100.00
64141;BME280;50436;50.618;7.932;2022-08-25T08:53:10;96679.03;;;23.95;100.00
64141;BME280;50436;50.618;7.932;2022-08-25T08:55:54;96671.72;;;23.78;99.34
64141;BME280;50436;50.618;7.932;2022-08-25T09:01:07;96681.41;;;23.96;100.00
64141;BME280;50436;50.618;7.932;2022-08-25T09:03:37;96668.56;;;23.97;97.50
64141;BME280;50436;50.618;7.932;2022-08-25T09:06:21;96661.72;;;24.11;99.24
64141;BME280;50436;50.618;7.932;2022-08-25T09:08:48;96668.34;;;24.40;97.17
64141;BME280;50436;50.618;7.932;2022-08-25T09:11:24;96660.66;;;24.33;97.86
64141;BME280;50436;50.618;7.932;2022-08-25T09:20:03;96677.34;;;24.40;96.29
64141;BME280;50436;50.618;7.932;2022-08-25T09:25:27;96666.69;;;24.48;96.03
64141;BME280;50436;50.618;7.932;2022-08-25T09:28:06;96665.03;;;24.76;94.04
64141;BME280;50436;50.618;7.932;2022-08-25T09:31:00;96660.97;;;25.15;92.73
64141;BME280;50436;50.618;7.932;2022-08-25T09:33:25;96654.03;;;24.97;91.58
64141;BME280;50436;50.618;7.932;2022-08-25T09:35:53;96652.28;;;25.13;91.49
64141;BME280;50436;50.618;7.932;2022-08-25T09:38:19;96644.31;;;25.08;90.27
64141;BME280;50436;50.618;7.932;2022-08-25T09:40:48;96650.91;;;25.07;91.92
64141;BME280;50436;50.618;7.932;2022-08-25T09:46:00;96617.00;;;25.45;90.15
64141;BME280;50436;50.618;7.932;2022-08-25T09:48:42;96621.59;;;25.53;90.13
64141;BME280;50436;50.618;7.932;2022-08-25T09:53:49;96601.41;;;25.94;86.13
64141;BME280;50436;50.618;7.932;2022-08-25T09:56:18;96619.19;;;26.25;80.35
64141;BME280;50436;50.618;7.932;2022-08-25T09:58:45;96610.50;;;25.98;83.31
64141;BME280;50436;50.618;7.932;2022-08-25T10:01:18;96607.63;;;26.31;82.41
64141;BME280;50436;50.618;7.932;2022-08-25T10:04:01;96608.66;;;26.39;75.20
64141;BME280;50436;50.618;7.932;2022-08-25T10:06:34;96595.16;;;26.74;76.13
64141;BME280;50436;50.618;7.932;2022-08-25T10:09:07;96601.59;;;26.94;75.68
64141;BME280;50436;50.618;7.932;2022-08-25T10:11:36;96611.13;;;26.84;74.98
64141;BME280;50436;50.618;7.932;2022-08-25T10:16:50;96591.06;;;26.40;75.21
64141;BME280;50436;50.618;7.932;2022-08-25T10:22:01;96589.63;;;26.86;77.79
64141;BME280;50436;50.618;7.932;2022-08-25T10:24:27;96587.84;;;27.22;72.68
64141;BME280;50436;50.618;7.932;2022-08-25T10:27:17;96585.38;;;27.33;61.65
64141;BME280;50436;50.618;7.932;2022-08-25T10:30:10;96581.66;;;26.97;65.50
64141;BME280;50436;50.618;7.932;2022-08-25T10:32:56;96583.69;;;27.28;70.27
64141;BME280;50436;50.618;7.932;2022-08-25T10:38:35;96582.06;;;28.41;63.30
64141;BME280;50436;50.618;7.932;2022-08-25T10:43:42;96573.66;;;28.73;63.99
64141;BME280;50436;50.618;7.932;2022-08-25T10:49:13;96571.19;;;29.29;56.82
64141;BME280;50436;50.618;7.932;2022-08-25T10:54:45;96571.25;;;30.65;45.56
64141;BME280;50436;50.618;7.932;2022-08-25T11:05:23;96558.13;;;35.80;30.63
64141;BME280;50436;50.618;7.932;2022-08-25T11:08:13;96550.31;;;35.64;29.70
64141;BME280;50436;50.618;7.932;2022-08-25T11:10:45;96552.31;;;37.38;28.07
64141;BME280;50436;50.618;7.932;2022-08-25T11:13:22;96538.00;;;38.89;26.46
64141;BME280;50436;50.618;7.932;2022-08-25T11:15:53;96554.47;;;38.01;27.14
64141;BME280;50436;50.618;7.932;2022-08-25T11:18:20;96546.19;;;38.17;27.06
64141;BME280;50436;50.618;7.932;2022-08-25T11:21:04;96548.56;;;39.18;26.92
64141;BME280;50436;50.618;7.932;2022-08-25T11:23:43;96537.56;;;39.92;23.81
64141;BME280;50436;50.618;7.932;2022-08-25T11:26:12;96544.13;;;37.74;26.16
64141;BME280;50436;50.618;7.932;2022-08-25T11:31:51;96535.66;;;41.18;24.22
64141;BME280;50436;50.618;7.932;2022-08-25T11:34:19;96532.41;;;42.18;22.04
64141;BME280;50436;50.618;7.932;2022-08-25T11:37:13;96542.09;;;40.77;22.73
64141;BME280;50436;50.618;7.932;2022-08-25T11:48:12;96532.72;;;40.54;23.81
64141;BME280;50436;50.618;7.932;2022-08-25T11:51:07;96529.94;;;41.22;22.89
64141;BME280;50436;50.618;7.932;2022-08-25T11:53:38;96522.91;;;42.59;22.54
64141;BME280;50436;50.618;7.932;2022-08-25T11:56:06;96525.22;;;44.49;20.50
64141;BME280;50436;50.618;7.932;2022-08-25T12:01:08;96524.22;;;43.29;21.94
64141;BME280;50436;50.618;7.932;2022-08-25T12:11:43;96516.34;;;43.15;20.07
64141;BME280;50436;50.618;7.932;2022-08-25T12:19:53;96513.34;;;43.50;20.68
64141;BME280;50436;50.618;7.932;2022-08-25T12:24:53;96513.00;;;43.97;19.71
64141;BME280;50436;50.618;7.932;2022-08-25T12:30:13;96501.28;;;43.89;19.79
64141;BME280;50436;50.618;7.932;2022-08-25T12:35:38;96499.63;;;46.51;18.05
64141;BME280;50436;50.618;7.932;2022-08-25T12:38:17;96500.56;;;47.37;16.58
64141;BME280;50436;50.618;7.932;2022-08-25T12:41:06;96504.56;;;46.27;16.95
64141;BME280;50436;50.618;7.932;2022-08-25T12:43:43;96494.34;;;44.73;18.75
64141;BME280;50436;50.618;7.932;2022-08-25T12:48:57;96503.59;;;46.06;17.38
64141;BME280;50436;50.618;7.932;2022-08-25T12:51:51;96497.13;;;46.83;16.96
64141;BME280;50436;50.618;7.932;2022-08-25T12:54:56;96485.56;;;48.79;15.81
64141;BME280;50436;50.618;7.932;2022-08-25T12:57:28;96489.59;;;47.44;16.34
64141;BME280;50436;50.618;7.932;2022-08-25T13:00:02;96489.47;;;45.82;16.86
64141;BME280;50436;50.618;7.932;2022-08-25T13:05:34;96485.50;;;45.41;17.97
64141;BME280;50436;50.618;7.932;2022-08-25T13:10:49;96493.44;;;41.09;21.42
64141;BME280;50436;50.618;7.932;2022-08-25T13:13:51;96487.72;;;37.40;25.31
64141;BME280;50436;50.618;7.932;2022-08-25T13:16:25;96489.00;;;34.53;29.42
64141;BME280;50436;50.618;7.932;2022-08-25T13:18:52;96485.19;;;34.08;30.68
64141;BME280;50436;50.618;7.932;2022-08-25T13:24:06;96482.50;;;35.44;29.74
64141;BME280;50436;50.618;7.932;2022-08-25T13:26:41;96470.13;;;40.45;24.07
64141;BME280;50436;50.618;7.932;2022-08-25T13:31:34;96464.50;;;40.86;23.42
64141;BME280;50436;50.618;7.932;2022-08-25T13:34:07;96454.16;;;44.96;19.54
64141;BME280;50436;50.618;7.932;2022-08-25T13:36:41;96454.53;;;46.33;18.41
64141;BME280;50436;50.618;7.932;2022-08-25T13:39:27;96452.09;;;47.90;16.04
64141;BME280;50436;50.618;7.932;2022-08-25T13:41:56;96451.47;;;43.96;17.79
64141;BME280;50436;50.618;7.932;2022-08-25T13:44:27;96444.47;;;43.32;19.48
64141;BME280;50436;50.618;7.932;2022-08-25T13:47:13;96438.88;;;43.42;18.80
64141;BME280;50436;50.618;7.932;2022-08-25T13:49:42;96439.59;;;43.24;18.90
64141;BME280;50436;50.618;7.932;2022-08-25T13:52:22;96430.69;;;43.34;19.21
64141;BME280;50436;50.618;7.932;2022-08-25T13:54:49;96426.09;;;43.59;18.39
64141;BME280;50436;50.618;7.932;2022-08-25T13:57:20;96424.97;;;43.56;17.99
64141;BME280;50436;50.618;7.932;2022-08-25T13:59:53;96430.16;;;42.02;19.71
64141;BME280;50436;50.618;7.932;2022-08-25T14:05:04;96439.38;;;41.34;20.86
64141;BME280;50436;50.618;7.932;2022-08-25T14:07:29;96427.91;;;41.41;20.75
64141;BME280;50436;50.618;7.932;2022-08-25T14:10:28;96411.50;;;42.93;20.04
64141;BME280;50436;50.618;7.932;2022-08-25T14:13:28;96428.13;;;45.97;17.13
64141;BME280;50436;50.618;7.932;2022-08-25T14:16:10;96421.13;;;43.90;18.26
64141;BME280;50436;50.618;7.932;2022-08-25T14:18:36;96417.78;;;43.64;17.80
64141;BME280;50436;50.618;7.932;2022-08-25T14:21:08;96414.38;;;43.79;18.23
64141;BME280;50436;50.618;7.932;2022-08-25T14:23:35;96407.00;;;43.45;18.87
64141;BME280;50436;50.618;7.932;2022-08-25T14:26:01;96410.03;;;41.82;20.13
64141;BME280;50436;50.618;7.932;2022-08-25T14:28:28;96419.53;;;36.63;24.98
64141;BME280;50436;50.618;7.932;2022-08-25T14:30:58;96408.75;;;38.98;23.31
64141;BME280;50436;50.618;7.932;2022-08-25T14:33:37;96416.44;;;41.83;20.88
64141;BME280;50436;50.618;7.932;2022-08-25T14:36:04;96401.16;;;43.30;19.16
64141;BME280;50436;50.618;7.932;2022-08-25T14:38:31;96399.59;;;40.33;22.16
64141;BME280;50436;50.618;7.932;2022-08-25T14:40:58;96401.09;;;41.96;20.29
64141;BME280;50436;50.618;7.932;2022-08-25T14:43:23;96405.06;;;42.52;19.37
64141;BME280;50436;50.618;7.932;2022-08-25T14:45:49;96392.91;;;44.09;18.78
64141;BME280;50436;50.618;7.932;2022-08-25T14:48:27;96400.22;;;46.29;17.04
64141;BME280;50436;50.618;7.932;2022-08-25T14:50:55;96391.38;;;45.59;16.86
64141;BME280;50436;50.618;7.932;2022-08-25T14:53:21;96393.78;;;45.27;17.26